Time;durP1;ratioP1;P1;durP2;ratioP2;P2;SDS_P1;SDS_P2;PMS_P1;PMS_P2;Temp;Humidity;BMP_temperature;BMP_pressure;BME280_temperature;BME280_humidity;BME280_pressure;Samples;Min_cycle;Max_cycle;Signal;HPM_P1;HPM_P2
2022/05/20 00:00:11;;;;;;;3.13;2.83;;;;;;;11.46;nan;-24137.22;5077820;28;20195;-70
2022/05/20 00:02:36;;;;;;;2.93;2.60;;;;;;;11.24;nan;-24130.88;5075928;28;20189;-69
2022/05/20 00:05:03;;;;;;;2.83;2.53;;;;;;;11.12;nan;-24127.63;5072145;28;20208;-68
2022/05/20 00:07:28;;;;;;;3.50;2.40;;;;;;;10.73;nan;-24116.78;5075490;28;20273;-70
2022/05/20 00:09:53;;;;;;;3.13;2.23;;;;;;;10.85;nan;-24120.16;5075014;28;20266;-69
2022/05/20 00:12:20;;;;;;;2.70;2.30;;;;;;;10.85;nan;-24120.16;5079263;28;20196;-71
2022/05/20 00:14:46;;;;;;;2.57;2.33;;;;;;;10.80;nan;-24118.75;5074846;28;20279;-69
2022/05/20 00:17:11;;;;;;;3.47;2.40;;;;;;;10.47;nan;-24109.59;5074833;28;20655;-70
2022/05/20 00:19:37;;;;;;;3.73;2.53;;;;;;;10.57;nan;-24112.41;5073051;28;20561;-69
2022/05/20 00:22:05;;;;;;;2.40;2.20;;;;;;;10.48;nan;-24109.88;5076502;28;20207;-69
2022/05/20 00:24:31;;;;;;;2.60;2.30;;;;;;;10.52;nan;-24111.00;5077504;28;20182;-69
2022/05/20 00:26:56;;;;;;;3.53;2.60;;;;;;;10.28;nan;-24104.06;5074533;28;20181;-68
2022/05/20 00:29:22;;;;;;;4.50;2.50;;;;;;;10.45;nan;-24108.88;5074519;28;20186;-67
2022/05/20 00:31:47;;;;;;;3.10;2.30;;;;;;;10.43;nan;-24108.47;5074568;28;20193;-68
2022/05/20 00:34:13;;;;;;;3.17;2.20;;;;;;;10.34;nan;-24105.91;5074390;28;20181;-70
2022/05/20 00:36:38;;;;;;;3.20;2.60;;;;;;;10.72;nan;-24116.50;5074173;28;20562;-69
2022/05/20 00:39:04;;;;;;;2.53;2.30;;;;;;;10.58;nan;-24112.56;5074777;28;20170;-68
2022/05/20 00:41:29;;;;;;;3.20;2.30;;;;;;;10.65;nan;-24114.53;5074457;28;20178;-70
2022/05/20 00:43:56;;;;;;;2.53;2.17;;;;;;;10.63;nan;-24113.97;5075249;28;20182;-70
2022/05/20 00:46:26;;;;;;;5.93;2.70;;;;;;;10.54;nan;-24111.41;5080410;28;20269;-71
2022/05/20 00:49:14;;;;;;;7.97;2.43;;;;;;;10.28;nan;-24104.06;5076306;28;20174;-68
2022/05/20 00:51:45;;;;;;;3.23;2.53;;;;;;;10.64;nan;-24114.38;5068503;28;20166;-67
2022/05/20 00:54:19;;;;;;;3.07;2.20;;;;;;;10.34;nan;-24105.78;5073882;28;20605;-68
2022/05/20 00:56:52;;;;;;;2.17;1.97;;;;;;;10.66;nan;-24114.81;5078343;28;20190;-69
2022/05/20 00:59:23;;;;;;;2.70;2.20;;;;;;;10.82;nan;-24119.31;5078423;28;20210;-68
2022/05/20 01:01:52;;;;;;;2.77;2.40;;;;;;;10.43;nan;-24108.47;5076111;28;20573;-68
2022/05/20 01:04:19;;;;;;;3.23;2.23;;;;;;;10.69;nan;-24115.50;5076983;28;20180;-71
2022/05/20 01:06:45;;;;;;;3.37;2.60;;;;;;;10.64;nan;-24114.38;5077185;28;20269;-67
2022/05/20 01:09:10;;;;;;;2.97;2.50;;;;;;;10.69;nan;-24115.50;5073121;28;20193;-68
2022/05/20 01:11:38;;;;;;;3.27;2.47;;;;;;;10.59;nan;-24112.97;5075576;28;20269;-70
2022/05/20 01:14:05;;;;;;;3.77;2.60;;;;;;;10.43;nan;-24108.47;5077594;28;20648;-69
2022/05/20 01:16:32;;;;;;;3.63;2.40;;;;;;;10.28;nan;-24104.06;5077584;28;20279;-67
2022/05/20 01:18:57;;;;;;;4.27;2.60;;;;;;;9.97;nan;-24095.59;5078773;28;20695;-67
2022/05/20 01:21:23;;;;;;;4.90;2.80;;;;;;;9.97;nan;-24095.47;5075687;28;20257;-69
2022/05/20 01:23:48;;;;;;;4.47;2.23;;;;;;;10.09;nan;-24099.00;5075077;28;20213;-67
2022/05/20 01:26:14;;;;;;;3.93;2.67;;;;;;;10.02;nan;-24097.03;5077215;28;20273;-68
2022/05/20 01:28:40;;;;;;;2.80;2.40;;;;;;;9.70;nan;-24087.97;5075599;28;20178;-68
2022/05/20 01:31:14;;;;;;;2.53;2.07;;;;;;;9.93;nan;-24094.34;5076253;28;20188;-70
2022/05/20 01:33:47;;;;;;;2.63;2.00;;;;;;;9.80;nan;-24090.66;5075863;28;20201;-68
2022/05/20 01:36:19;;;;;;;3.33;2.57;;;;;;;9.69;nan;-24087.84;5074621;28;20201;-68
2022/05/20 01:38:45;;;;;;;2.53;2.30;;;;;;;10.01;nan;-24096.72;5074315;28;20258;-72
2022/05/20 01:41:16;;;;;;;3.03;2.23;;;;;;;10.07;nan;-24098.28;5074652;28;20177;-69
2022/05/20 01:43:55;;;;;;;2.07;1.80;;;;;;;9.75;nan;-24089.53;5078006;28;20612;-72
2022/05/20 01:46:33;;;;;;;3.77;2.40;;;;;;;10.12;nan;-24099.69;5080886;28;20181;-71
2022/05/20 01:49:50;;;;;;;2.20;2.00;;;;;;;10.10;nan;-24099.13;5072754;28;20177;-69
2022/05/20 01:52:29;;;;;;;2.20;1.83;;;;;;;9.99;nan;-24096.16;4991329;28;20211;-71
2022/05/20 01:54:55;;;;;;;4.17;2.07;;;;;;;9.86;nan;-24092.34;4991326;28;20315;-69
2022/05/20 01:57:23;;;;;;;1.97;1.73;;;;;;;10.09;nan;-24098.84;5044764;28;20806;-67
2022/05/20 02:00:00;;;;;;;2.80;2.10;;;;;;;9.71;nan;-24088.41;5071856;28;20181;-71
2022/05/20 02:02:35;;;;;;;2.40;2.10;;;;;;;10.14;nan;-24100.25;5072829;28;20187;-71
2022/05/20 02:05:13;;;;;;;2.27;2.00;;;;;;;10.03;nan;-24097.16;5074058;28;20687;-69
2022/05/20 02:07:44;;;;;;;3.90;2.07;;;;;;;5.77;nan;-23977.88;5074755;28;20280;-67
2022/05/20 02:10:25;;;;;;;3.10;2.33;;;;;;;9.89;nan;-24093.34;5073163;28;20177;-69
2022/05/20 02:12:55;;;;;;;2.33;2.13;;;;;;;9.74;nan;-24089.25;5073449;28;20712;-70
2022/05/20 02:15:40;;;;;;;3.43;2.53;;;;;;;9.70;nan;-24088.13;5072751;28;20235;-69
2022/05/20 02:18:11;;;;;;;2.77;2.17;;;;;;;9.45;nan;-24081.06;5072242;28;20169;-68
2022/05/20 02:20:49;;;;;;;2.30;2.10;;;;;;;9.58;nan;-24084.72;5078904;28;20216;-71
2022/05/20 02:23:32;;;;;;;2.83;2.07;;;;;;;9.49;nan;-24082.03;5076961;28;20185;-70
2022/05/20 02:26:03;;;;;;;1.90;1.70;;;;;;;9.69;nan;-24087.69;5072306;28;20208;-70
2022/05/20 02:28:39;;;;;;;2.27;2.03;;;;;;;9.66;nan;-24086.97;5075791;28;20185;-71
2022/05/20 02:31:08;;;;;;;3.10;2.17;;;;;;;9.30;nan;-24076.81;5075755;28;20242;-69
2022/05/20 02:33:34;;;;;;;2.93;2.27;;;;;;;9.71;nan;-24088.41;5077523;28;20220;-70
2022/05/20 02:36:05;;;;;;;2.53;2.03;;;;;;;9.48;nan;-24081.91;5077776;28;20177;-68
2022/05/20 02:38:30;;;;;;;2.87;2.03;;;;;;;9.90;nan;-24093.47;5074900;28;20635;-69
2022/05/20 02:40:56;;;;;;;2.40;2.00;;;;;;;9.88;nan;-24092.91;5077086;28;20268;-70
2022/05/20 02:43:22;;;;;;;2.47;2.10;;;;;;;9.87;nan;-24092.63;5071818;28;20196;-70
2022/05/20 02:45:49;;;;;;;2.10;1.90;;;;;;;9.73;nan;-24088.81;5073408;28;20185;-70
2022/05/20 02:48:18;;;;;;;2.20;2.00;;;;;;;9.75;nan;-24089.38;5073086;28;20184;-70
2022/05/20 02:50:44;;;;;;;3.27;2.20;;;;;;;9.63;nan;-24086.13;5071978;28;20269;-69
2022/05/20 02:53:09;;;;;;;2.63;1.87;;;;;;;9.52;nan;-24082.91;5073448;28;20786;-68
2022/05/20 02:55:36;;;;;;;3.27;2.03;;;;;;;9.80;nan;-24090.81;5072460;28;20249;-70
2022/05/20 02:58:03;;;;;;;2.10;1.90;;;;;;;9.57;nan;-24084.31;5073356;28;20590;-70
2022/05/20 03:05:56;;;;;;;2.83;2.40;;;;;;;10.22;nan;-24102.38;5071732;28;20203;-66
2022/05/20 03:08:22;;;;;;;2.57;1.83;;;;;;;10.32;nan;-24105.34;5103755;27;20703;-71
2022/05/20 03:10:48;;;;;;;2.60;1.97;;;;;;;11.12;nan;-24127.63;5076410;28;20182;-71
2022/05/20 03:13:15;;;;;;;1.93;1.63;;;;;;;11.82;nan;-24147.22;5073433;28;20659;-71
2022/05/20 03:15:41;;;;;;;1.90;1.70;;;;;;;11.60;nan;-24140.88;5071992;28;20181;-71
2022/05/20 03:18:09;;;;;;;2.40;2.00;;;;;;;13.12;nan;-24183.25;5071585;28;20289;-69
2022/05/20 03:20:35;;;;;;;2.23;2.00;;;;;;;13.50;nan;-24193.91;5070643;28;20170;-69
2022/05/20 03:23:01;;;;;;;2.35;1.73;;;;;;;14.45;nan;-24220.16;5072059;28;20185;-67
2022/05/20 03:25:27;;;;;;;2.58;2.17;;;;;;;15.20;nan;-24241.06;5077011;28;20278;-69
2022/05/20 03:27:52;;;;;;;2.60;2.00;;;;;;;15.44;nan;-24247.78;5072648;28;20231;-71
2022/05/20 03:30:18;;;;;;;2.38;2.13;;;;;;;16.18;nan;-24268.22;5075063;28;20641;-68
2022/05/20 03:32:44;;;;;;;2.38;1.80;;;;;;;17.08;nan;-24292.94;5078895;28;21724;-72
2022/05/20 03:35:10;;;;;;;4.03;2.00;;;;;;;17.74;nan;-24311.22;5080883;28;20173;-70
2022/05/20 03:37:36;;;;;;;2.55;2.08;;;;;;;18.62;nan;-24335.47;5079858;28;20252;-70
2022/05/20 03:40:02;;;;;;;2.50;2.00;;;;;;;19.06;nan;-24347.44;5080136;28;20181;-70
2022/05/20 03:42:28;;;;;;;2.40;1.95;;;;;;;19.47;nan;-24358.72;5078699;28;20652;-68
2022/05/20 03:44:53;;;;;;;2.45;1.70;;;;;;;19.54;nan;-24360.66;5079423;28;20268;-68
2022/05/20 03:47:19;;;;;;;3.08;2.03;;;;;;;21.14;nan;-24404.69;5080422;28;20697;-70
2022/05/20 03:49:46;;;;;;;3.80;2.08;;;;;;;20.47;nan;-24386.25;5080741;28;20247;-67
2022/05/20 03:52:13;;;;;;;2.25;1.77;;;;;;;21.51;nan;-24414.94;5078914;28;20701;-67
2022/05/20 03:54:39;;;;;;;1.77;1.33;;;;;;;22.29;nan;-24436.28;5078780;28;20224;-71
2022/05/20 03:57:05;;;;;;;2.45;1.80;;;;;;;22.89;nan;-24452.59;5080497;28;20654;-72
2022/05/20 03:59:38;;;;;;;2.08;1.60;;;;;;;23.69;nan;-24474.44;5078335;28;20189;-71
2022/05/20 04:02:10;;;;;;;2.63;2.05;;;;;;;23.88;nan;-24479.53;5078167;28;20181;-69
2022/05/20 04:04:44;;;;;;;2.47;2.08;;;;;;;24.47;nan;-24495.81;5079346;28;20224;-68
2022/05/20 04:07:13;;;;;;;2.72;1.85;;;;;;;24.79;nan;-24504.47;5079837;28;20947;-69
2022/05/20 04:09:39;;;;;;;2.83;2.00;;;;;;;24.85;nan;-24506.13;5074110;28;20189;-70
2022/05/20 04:12:07;;;;;;;2.88;1.90;;;;;;;24.94;nan;-24508.47;5070807;28;20613;-68
2022/05/20 04:14:34;;;;;;;2.65;2.10;;;;;;;24.45;nan;-24495.13;5072012;28;20186;-69
2022/05/20 04:17:00;;;;;;;2.72;2.00;;;;;;;23.53;nan;-24470.16;5071727;28;20264;-69
2022/05/20 04:19:27;;;;;;;2.60;1.73;;;;;;;24.07;nan;-24484.78;5073005;28;20177;-67
2022/05/20 04:21:56;;;;;;;2.05;1.65;;;;;;;24.08;nan;-24485.06;5071769;28;20652;-69
2022/05/20 04:24:22;;;;;;;2.17;1.67;;;;;;;24.25;nan;-24489.75;5074153;28;20189;-73
2022/05/20 04:26:47;;;;;;;5.70;2.20;;;;;;;24.18;nan;-24487.81;5078838;28;20232;-72
2022/05/20 04:29:13;;;;;;;2.95;1.98;;;;;;;23.87;nan;-24479.38;5110256;27;20725;-72
2022/05/20 04:31:44;;;;;;;2.72;1.90;;;;;;;23.38;nan;-24466.00;5078631;28;20182;-71
2022/05/20 04:34:10;;;;;;;2.75;2.10;;;;;;;24.17;nan;-24487.69;5074197;28;20190;-71
2022/05/20 04:36:35;;;;;;;2.92;1.90;;;;;;;23.88;nan;-24479.66;5076726;28;20261;-71
2022/05/20 04:39:00;;;;;;;2.90;1.98;;;;;;;23.89;nan;-24479.94;5075878;28;20178;-69
2022/05/20 04:46:58;;;;;;;3.40;1.85;;;;;;;22.84;nan;-24451.34;5078754;28;20238;-73
2022/05/20 04:49:32;;;;;;;4.15;2.20;;;;;;;22.30;nan;-24436.41;5073374;28;20657;-72
2022/05/20 04:52:00;;;;;;;4.22;1.90;;;;;;;21.94;nan;-24426.72;5070777;28;20293;-71
2022/05/20 04:57:41;;;;;;;3.25;1.90;;;;;;;22.10;nan;-24431.03;5072596;28;20259;-72
2022/05/20 05:00:20;;;;;;;4.25;2.00;;;;;;;22.05;nan;-24429.50;5067320;28;20197;-74
2022/05/20 05:02:46;;;;;;;2.63;1.70;;;;;;;22.43;nan;-24440.16;5104930;28;20566;-73
2022/05/20 05:05:15;;;;;;;3.33;1.80;;;;;;;21.12;nan;-24404.28;5073055;28;20264;-70
2022/05/20 05:07:43;;;;;;;2.90;1.92;;;;;;;20.39;nan;-24384.03;5072747;28;20896;-72
2022/05/20 05:10:12;;;;;;;3.10;2.15;;;;;;;20.56;nan;-24388.75;5072444;28;20205;-71
2022/05/20 05:12:37;;;;;;;3.10;2.05;;;;;;;20.97;nan;-24400.13;5071085;28;20198;-72
2022/05/20 05:15:05;;;;;;;3.55;1.98;;;;;;;21.32;nan;-24409.69;5074907;28;20185;-72
2022/05/20 05:20:21;;;;;;;2.72;1.83;;;;;;;21.79;nan;-24422.44;5076072;28;20246;-70
2022/05/20 05:22:55;;;;;;;2.30;1.88;;;;;;;21.70;nan;-24420.06;5077802;28;20182;-71
2022/05/20 05:25:23;;;;;;;3.00;2.10;;;;;;;21.10;nan;-24403.72;5074302;28;20174;-71
2022/05/20 05:27:49;;;;;;;3.88;2.55;;;;;;;20.11;nan;-24376.38;5072908;28;20182;-71
2022/05/20 05:30:15;;;;;;;3.75;1.98;;;;;;;19.21;nan;-24351.63;5073671;28;20189;-75
2022/05/20 05:32:41;;;;;;;2.92;2.13;;;;;;;19.68;nan;-24364.56;5077323;28;20220;-71
2022/05/20 05:35:13;;;;;;;3.10;2.50;;;;;;;19.37;nan;-24356.22;5074005;28;20535;-72
2022/05/20 05:37:40;;;;;;;2.88;2.15;;;;;;;18.21;nan;-24324.19;5077622;28;20572;-72
2022/05/20 05:40:09;;;;;;;2.13;1.75;;;;;;;18.33;nan;-24327.53;5075010;28;20640;-70
2022/05/20 05:42:35;;;;;;;2.40;1.88;;;;;;;18.08;nan;-24320.56;5077510;28;20185;-72
2022/05/20 05:45:01;;;;;;;2.80;2.17;;;;;;;17.13;nan;-24294.47;5074402;28;20189;-72
2022/05/20 05:47:27;;;;;;;2.63;2.10;;;;;;;17.45;nan;-24303.13;5076753;28;20173;-72
2022/05/20 05:49:52;;;;;;;3.13;2.28;;;;;;;17.55;nan;-24305.91;5075887;28;20231;-73
2022/05/20 05:52:18;;;;;;;3.65;2.20;;;;;;;17.60;nan;-24307.31;5076096;28;20212;-71
2022/05/20 05:54:43;;;;;;;4.10;2.22;;;;;;;17.44;nan;-24303.00;5075997;28;20225;-71
2022/05/20 05:57:09;;;;;;;2.58;2.15;;;;;;;17.61;nan;-24307.75;5076205;28;20594;-71
2022/05/20 05:59:37;;;;;;;2.53;2.00;;;;;;;17.84;nan;-24313.88;5077607;28;20186;-72
2022/05/20 06:02:04;;;;;;;3.53;2.10;;;;;;;17.75;nan;-24311.38;5076338;28;20201;-72
2022/05/20 06:04:29;;;;;;;3.17;2.40;;;;;;;18.14;nan;-24322.09;5078386;28;20181;-76
2022/05/20 06:06:55;;;;;;;3.38;1.90;;;;;;;18.24;nan;-24325.03;5075616;28;20231;-72
2022/05/20 06:09:22;;;;;;;3.33;2.08;;;;;;;18.51;nan;-24332.56;5074268;28;20220;-73
2022/05/20 06:11:49;;;;;;;2.53;2.08;;;;;;;18.28;nan;-24326.13;5105662;27;20303;-74
2022/05/20 06:14:15;;;;;;;3.78;1.98;;;;;;;18.40;nan;-24329.47;5073093;28;20181;-74
2022/05/20 06:16:40;;;;;;;1.92;1.67;;;;;;;18.50;nan;-24332.28;5078676;28;20763;-74
2022/05/20 06:19:06;;;;;;;2.78;2.20;;;;;;;18.58;nan;-24334.38;5078779;28;20182;-75
2022/05/20 06:21:33;;;;;;;3.10;1.90;;;;;;;18.74;nan;-24338.81;5076386;28;20725;-75
2022/05/20 06:24:01;;;;;;;2.70;1.85;;;;;;;18.82;nan;-24340.91;5075331;28;20741;-74
2022/05/20 06:26:27;;;;;;;2.65;1.95;;;;;;;18.80;nan;-24340.34;5080138;28;20178;-74
2022/05/20 06:28:53;;;;;;;1.80;1.70;;;;;;;18.85;nan;-24341.88;5074124;28;20187;-74
2022/05/20 06:31:18;;;;;;;2.63;2.00;;;;;;;18.93;nan;-24343.97;5073423;28;20178;-70
2022/05/20 06:33:45;;;;;;;3.08;2.00;;;;;;;19.17;nan;-24350.66;5085414;28;20201;-73
2022/05/20 06:41:39;;;;;;;2.00;1.80;;;;;;;19.39;nan;-24356.78;5054131;28;20587;-74
2022/05/20 06:44:05;;;;;;;3.63;2.10;;;;;;;19.36;nan;-24355.94;5071438;28;20174;-76
2022/05/20 06:46:31;;;;;;;2.35;1.85;;;;;;;19.53;nan;-24360.53;5071783;28;20185;-73
2022/05/20 06:48:57;;;;;;;4.00;2.08;;;;;;;19.66;nan;-24364.00;5071980;28;20710;-71
2022/05/20 06:51:29;;;;;;;3.65;2.13;;;;;;;19.95;nan;-24372.06;5072140;28;20202;-75
2022/05/20 06:53:57;;;;;;;3.03;1.70;;;;;;;20.02;nan;-24374.00;5071751;28;20225;-72
2022/05/20 06:56:26;;;;;;;2.55;1.80;;;;;;;20.03;nan;-24374.28;5072083;28;20543;-74
2022/05/20 06:58:52;;;;;;;1.98;1.67;;;;;;;20.17;nan;-24378.03;5071777;28;20185;-74
2022/05/20 07:01:18;;;;;;;2.50;2.20;;;;;;;20.04;nan;-24374.44;5071644;28;20223;-73
2022/05/20 07:03:43;;;;;;;2.85;1.90;;;;;;;20.10;nan;-24376.25;5071780;28;20173;-72
2022/05/20 07:06:11;;;;;;;3.20;2.17;;;;;;;20.47;nan;-24386.38;5070884;28;20174;-73
2022/05/20 07:08:37;;;;;;;3.05;1.80;;;;;;;20.53;nan;-24387.91;5071761;28;20546;-74
2022/05/20 07:11:03;;;;;;;2.35;1.80;;;;;;;20.49;nan;-24386.78;5069910;28;20188;-72
2022/05/20 07:13:30;;;;;;;3.03;1.70;;;;;;;20.72;nan;-24393.31;5071414;28;20201;-74
2022/05/20 07:15:57;;;;;;;4.88;2.40;;;;;;;20.91;nan;-24398.31;5071092;28;20181;-72
2022/05/20 07:18:26;;;;;;;4.38;2.17;;;;;;;20.71;nan;-24393.03;5077728;28;20204;-72
2022/05/20 07:20:52;;;;;;;5.90;2.47;;;;;;;20.94;nan;-24399.16;5078101;28;20213;-75
2022/05/20 07:23:18;;;;;;;3.75;2.30;;;;;;;21.25;nan;-24407.75;5072835;28;20209;-74
2022/05/20 07:25:44;;;;;;;4.35;2.13;;;;;;;21.29;nan;-24408.72;5074596;28;20708;-74
2022/05/20 07:28:10;;;;;;;2.53;1.90;;;;;;;21.28;nan;-24408.44;5081136;28;20213;-72
2022/05/20 07:30:35;;;;;;;4.25;1.70;;;;;;;21.70;nan;-24419.94;5072234;28;20181;-75
2022/05/20 07:33:01;;;;;;;5.25;2.20;;;;;;;21.64;nan;-24418.41;5070799;28;20266;-72
2022/05/20 07:35:28;;;;;;;2.10;1.65;;;;;;;21.50;nan;-24414.53;5071299;28;20284;-75
2022/05/20 07:37:53;;;;;;;2.28;1.67;;;;;;;21.63;nan;-24418.13;5071191;28;20170;-76
2022/05/20 07:40:20;;;;;;;3.20;1.55;;;;;;;21.52;nan;-24415.09;5071524;28;20169;-75
2022/05/20 07:42:46;;;;;;;2.08;1.55;;;;;;;21.91;nan;-24425.91;5071225;28;20174;-75
2022/05/20 07:45:13;;;;;;;2.55;1.80;;;;;;;22.15;nan;-24432.25;5071083;28;20274;-73
2022/05/20 07:47:39;;;;;;;2.40;1.52;;;;;;;21.90;nan;-24425.47;5074745;28;20174;-76
2022/05/20 07:50:06;;;;;;;1.85;1.52;;;;;;;22.24;nan;-24434.75;5075734;28;20181;-69
2022/05/20 07:55:26;;;;;;;4.25;2.05;;;;;;;22.15;nan;-24432.25;5071392;28;20240;-72
2022/05/20 07:57:53;;;;;;;2.10;1.60;;;;;;;22.35;nan;-24437.78;5075217;28;20606;-76
2022/05/20 08:00:21;;;;;;;1.65;1.40;;;;;;;22.23;nan;-24434.47;5073997;28;20181;-76
2022/05/20 08:02:47;;;;;;;3.20;1.73;;;;;;;22.53;nan;-24442.63;5105019;28;20178;-75
2022/05/20 08:05:14;;;;;;;1.73;1.40;;;;;;;22.47;nan;-24441.13;5071700;28;20217;-72
2022/05/20 08:07:44;;;;;;;1.98;1.52;;;;;;;22.83;nan;-24451.09;5075622;28;20182;-73
2022/05/20 08:10:20;;;;;;;1.58;1.40;;;;;;;23.01;nan;-24455.78;5072436;28;20189;-74
2022/05/20 08:12:46;;;;;;;3.35;1.50;;;;;;;22.75;nan;-24448.72;5073283;28;20331;-72
2022/05/20 08:15:12;;;;;;;1.23;1.13;;;;;;;23.02;nan;-24456.19;5074059;28;20285;-71
2022/05/20 08:17:40;;;;;;;2.58;1.73;;;;;;;22.89;nan;-24452.72;5076166;28;20650;-72
2022/05/20 08:20:09;;;;;;;3.65;1.40;;;;;;;23.12;nan;-24458.81;5074352;28;20202;-72
2022/05/20 08:22:35;;;;;;;1.40;1.20;;;;;;;23.22;nan;-24461.56;5076301;28;20205;-76
2022/05/20 08:25:01;;;;;;;1.58;1.30;;;;;;;23.37;nan;-24465.72;5075946;28;20182;-72
2022/05/20 08:27:30;;;;;;;1.75;1.40;;;;;;;23.25;nan;-24462.56;5073967;28;20196;-71
2022/05/20 08:29:57;;;;;;;2.60;1.60;;;;;;;23.46;nan;-24468.06;5074193;28;20178;-74
2022/05/20 08:32:23;;;;;;;2.45;1.50;;;;;;;23.48;nan;-24468.78;5074715;28;20244;-72
2022/05/20 08:34:50;;;;;;;2.03;1.52;;;;;;;23.15;nan;-24459.66;5072267;28;20213;-73
2022/05/20 08:37:17;;;;;;;1.77;1.38;;;;;;;23.43;nan;-24467.25;5076856;28;20270;-74
2022/05/20 08:39:43;;;;;;;2.20;1.40;;;;;;;23.52;nan;-24469.88;5080065;28;20185;-78
2022/05/20 08:42:22;;;;;;;1.38;1.27;;;;;;;23.59;nan;-24471.81;5078290;28;20637;-75
2022/05/20 08:44:51;;;;;;;1.60;1.40;;;;;;;23.97;nan;-24482.00;5077728;28;20190;-76
2022/05/20 08:47:38;;;;;;;1.30;1.20;;;;;;;23.75;nan;-24476.22;5078486;28;20193;-75
2022/05/20 08:50:07;;;;;;;4.10;1.40;;;;;;;23.67;nan;-24474.00;5089538;28;20327;-70
2022/05/20 08:52:32;;;;;;;1.48;1.30;;;;;;;23.98;nan;-24482.44;5075511;28;20213;-73
2022/05/20 08:54:58;;;;;;;1.85;1.30;;;;;;;23.52;nan;-24469.72;5075575;28;20229;-71
2022/05/20 08:57:29;;;;;;;1.88;1.48;;;;;;;23.93;nan;-24480.91;5078866;28;20181;-75
2022/05/20 08:59:55;;;;;;;2.20;1.40;;;;;;;23.93;nan;-24480.91;5072716;28;20170;-73
2022/05/20 09:02:22;;;;;;;1.60;1.50;;;;;;;24.25;nan;-24489.75;5076571;28;20687;-75
2022/05/20 09:04:48;;;;;;;4.28;1.42;;;;;;;24.49;nan;-24496.22;5076166;28;20177;-71
2022/05/20 09:07:17;;;;;;;1.45;1.23;;;;;;;24.74;nan;-24502.97;5075416;28;20265;-75
2022/05/20 09:09:42;;;;;;;1.85;1.40;;;;;;;24.77;nan;-24503.78;5075966;28;20205;-75
2022/05/20 09:12:10;;;;;;;2.22;1.33;;;;;;;24.42;nan;-24494.44;5075533;28;20347;-73
2022/05/20 09:17:23;;;;;;;1.27;1.13;;;;;;;24.39;nan;-24493.47;5075352;28;20246;-72
2022/05/20 09:19:59;;;;;;;1.38;1.27;;;;;;;24.46;nan;-24495.41;5074532;28;20213;-73
2022/05/20 09:22:30;;;;;;;1.35;1.25;;;;;;;24.91;nan;-24507.66;5079773;28;20646;-70
2022/05/20 09:24:56;;;;;;;1.55;1.33;;;;;;;25.20;nan;-24515.50;5075122;28;20269;-70
2022/05/20 09:27:36;;;;;;;1.40;1.30;;;;;;;25.17;nan;-24514.81;5071471;28;20208;-73
2022/05/20 09:30:06;;;;;;;1.55;1.30;;;;;;;24.98;nan;-24509.72;5077112;28;20178;-73
2022/05/20 09:32:39;;;;;;;1.80;1.48;;;;;;;25.23;nan;-24516.47;5080189;28;20204;-71
2022/05/20 09:35:07;;;;;;;1.95;1.30;;;;;;;25.17;nan;-24514.81;5075127;28;20182;-72
2022/05/20 09:37:34;;;;;;;1.73;1.33;;;;;;;24.88;nan;-24506.97;5073275;28;20836;-69
2022/05/20 09:40:15;;;;;;;1.33;1.23;;;;;;;25.07;nan;-24512.06;5074757;28;20180;-73
2022/05/20 09:42:57;;;;;;;1.95;1.30;;;;;;;25.09;nan;-24512.63;5075710;28;20645;-70
2022/05/20 09:45:23;;;;;;;1.30;1.20;;;;;;;25.25;nan;-24517.00;5079596;28;20192;-72
2022/05/20 09:47:56;;;;;;;1.40;1.27;;;;;;;25.14;nan;-24513.84;5076675;28;20185;-70
2022/05/20 09:50:34;;;;;;;1.30;1.20;;;;;;;25.56;nan;-24525.41;5076971;28;20252;-70
2022/05/20 09:53:02;;;;;;;1.70;1.40;;;;;;;25.68;nan;-24528.72;5074619;28;20266;-73
2022/05/20 09:55:34;;;;;;;1.65;1.48;;;;;;;25.89;nan;-24534.34;5076846;28;20224;-73
2022/05/20 09:58:17;;;;;;;1.52;1.30;;;;;;;24.92;nan;-24507.94;5091433;28;20181;-69
2022/05/20 10:00:49;;;;;;;2.03;1.48;;;;;;;25.28;nan;-24517.84;5077135;28;20264;-71
2022/05/20 10:03:35;;;;;;;1.95;1.35;;;;;;;25.67;nan;-24528.31;5074309;28;20238;-71
2022/05/20 10:06:39;;;;;;;1.30;1.17;;;;;;;25.92;nan;-24535.19;5072747;28;20196;-70
2022/05/20 10:09:32;;;;;;;1.50;1.40;;;;;;;26.05;nan;-24538.75;5055978;28;20264;-71
2022/05/20 10:12:12;;;;;;;2.30;1.42;;;;;;;25.78;nan;-24531.31;5076104;28;20255;-73
2022/05/20 10:15:16;;;;;;;3.50;1.35;;;;;;;26.03;nan;-24538.19;5075481;28;20182;-72
2022/05/20 10:18:02;;;;;;;2.10;1.48;;;;;;;26.25;nan;-24544.13;5055163;28;20193;-74
2022/05/20 10:20:50;;;;;;;1.10;1.00;;;;;;;26.15;nan;-24541.50;5075656;28;20197;-71
2022/05/20 10:23:32;;;;;;;1.50;1.20;;;;;;;26.53;nan;-24551.66;5071466;28;20182;-72
2022/05/20 10:26:11;;;;;;;1.20;1.10;;;;;;;26.44;nan;-24549.19;5076764;28;20189;-74
2022/05/20 10:34:35;;;;;;;1.50;1.30;;;;;;;25.92;nan;-24535.31;5079835;28;20239;-72
2022/05/20 10:37:04;;;;;;;2.58;1.35;;;;;;;25.99;nan;-24536.97;5078664;28;20186;-72
2022/05/20 10:39:57;;;;;;;1.30;1.13;;;;;;;25.99;nan;-24537.09;5075208;28;21836;-73
2022/05/20 10:42:44;;;;;;;1.38;1.20;;;;;;;25.92;nan;-24535.31;5076731;28;20196;-71
2022/05/20 10:48:35;;;;;;;1.50;1.20;;;;;;;25.87;nan;-24533.81;5076826;28;20570;-72
2022/05/20 10:51:27;;;;;;;1.20;1.10;;;;;;;25.61;nan;-24526.78;5075002;28;20182;-72
2022/05/20 10:54:20;;;;;;;1.10;1.00;;;;;;;25.56;nan;-24525.28;5075835;28;20732;-72
2022/05/20 10:57:06;;;;;;;1.30;1.20;;;;;;;25.63;nan;-24527.19;5078737;28;20185;-72
2022/05/20 10:59:50;;;;;;;1.80;1.08;;;;;;;25.99;nan;-24537.09;5076523;28;20276;-71
2022/05/20 11:02:40;;;;;;;1.60;1.10;;;;;;;26.15;nan;-24541.34;5068497;28;20362;-73
2022/05/20 11:05:24;;;;;;;1.40;1.17;;;;;;;26.48;nan;-24550.28;5077424;28;20209;-71
2022/05/20 11:07:56;;;;;;;1.67;1.10;;;;;;;26.65;nan;-24555.09;5075315;28;20641;-72
2022/05/20 11:10:31;;;;;;;1.85;1.20;;;;;;;26.83;nan;-24559.91;5076756;28;20189;-72
2022/05/20 11:13:11;;;;;;;2.35;1.35;;;;;;;26.62;nan;-24554.13;5076310;28;20197;-72
2022/05/20 11:15:47;;;;;;;1.42;1.23;;;;;;;26.76;nan;-24557.97;5076550;28;20652;-73
2022/05/20 11:18:20;;;;;;;1.48;0.98;;;;;;;26.87;nan;-24561.00;5076105;28;20178;-73
2022/05/20 11:21:17;;;;;;;1.83;1.10;;;;;;;27.16;nan;-24568.81;5074026;28;20181;-71
2022/05/20 11:23:54;;;;;;;1.35;1.10;;;;;;;26.92;nan;-24562.22;5073658;28;20196;-72
2022/05/20 11:26:48;;;;;;;1.20;1.10;;;;;;;27.03;nan;-24565.25;5072198;28;21989;-72
2022/05/20 11:29:24;;;;;;;1.33;1.13;;;;;;;27.03;nan;-24565.25;5072160;28;20178;-72
2022/05/20 11:31:56;;;;;;;2.65;1.08;;;;;;;27.45;nan;-24576.78;5078034;28;20359;-73
2022/05/20 11:34:32;;;;;;;1.15;1.02;;;;;;;27.36;nan;-24574.31;5071835;28;20174;-72
2022/05/20 11:37:35;;;;;;;1.20;1.10;;;;;;;27.32;nan;-24573.06;5073930;28;20268;-71
2022/05/20 11:40:08;;;;;;;1.30;1.20;;;;;;;27.47;nan;-24577.31;5075555;28;20267;-72
2022/05/20 11:43:11;;;;;;;1.35;1.20;;;;;;;27.58;nan;-24580.19;5071369;28;20604;-74
2022/05/20 11:45:55;;;;;;;2.63;1.30;;;;;;;27.50;nan;-24578.00;5072682;28;20185;-72
2022/05/20 11:48:49;;;;;;;1.73;1.20;;;;;;;27.09;nan;-24567.03;5075339;28;20177;-70
2022/05/20 11:51:32;;;;;;;1.17;1.08;;;;;;;27.11;nan;-24567.44;5074850;28;20204;-73
2022/05/20 11:54:06;;;;;;;1.40;1.30;;;;;;;27.12;nan;-24567.84;5076040;28;20235;-74
2022/05/20 11:56:48;;;;;;;2.13;1.08;;;;;;;27.15;nan;-24568.53;5077904;28;20178;-73
2022/05/20 11:59:41;;;;;;;2.00;1.17;;;;;;;27.01;nan;-24564.84;5077627;28;20182;-71
2022/05/20 12:02:11;;;;;;;1.58;1.10;;;;;;;26.82;nan;-24559.75;5079755;28;20181;-72
2022/05/20 12:04:39;;;;;;;2.50;1.20;;;;;;;26.44;nan;-24549.19;5080595;28;20269;-70
2022/05/20 12:07:09;;;;;;;1.25;1.08;;;;;;;26.37;nan;-24547.41;5079205;28;20671;-75
2022/05/20 12:09:41;;;;;;;1.05;0.93;;;;;;;26.26;nan;-24544.53;5076134;28;20533;-73
2022/05/20 12:12:27;;;;;;;1.40;1.30;;;;;;;26.70;nan;-24556.31;5079216;28;20261;-74
2022/05/20 12:15:06;;;;;;;3.67;1.33;;;;;;;26.59;nan;-24553.44;5110525;27;20825;-70
2022/05/20 12:17:36;;;;;;;2.25;1.30;;;;;;;26.92;nan;-24562.38;5079310;28;20177;-71
2022/05/20 12:26:27;;;;;;;1.83;1.10;;;;;;;27.23;nan;-24570.75;5074679;28;20182;-70
2022/05/20 12:28:52;;;;;;;1.30;1.20;;;;;;;27.21;nan;-24570.19;5074511;28;20190;-71
2022/05/20 12:31:22;;;;;;;1.38;1.15;;;;;;;27.18;nan;-24569.38;5072786;28;20394;-71
2022/05/20 12:34:05;;;;;;;1.40;1.25;;;;;;;27.02;nan;-24565.13;5075143;28;20245;-74
2022/05/20 12:36:42;;;;;;;1.65;1.15;;;;;;;27.19;nan;-24569.78;5073480;28;20184;-72
2022/05/20 12:39:07;;;;;;;1.30;1.20;;;;;;;27.41;nan;-24575.66;5077444;28;20239;-73
2022/05/20 12:41:39;;;;;;;3.17;1.40;;;;;;;27.39;nan;-24575.13;5075270;28;20277;-75
2022/05/20 12:44:20;;;;;;;1.30;1.20;;;;;;;27.43;nan;-24576.06;5078089;28;20177;-70